Time;durP1;ratioP1;P1;durP2;ratioP2;P2;SDS_P1;SDS_P2;PMS_P1;PMS_P2;Temp;Humidity;BMP_temperature;BMP_pressure;BME280_temperature;BME280_humidity;BME280_pressure;Samples;Min_cycle;Max_cycle;Signal;HPM_P1;HPM_P2
2022/04/21 00:01:11;;;;;;;3.80;1.10;;;9.20;99.10;;;;;;4915803;29;20916;-88
2022/04/21 00:03:39;;;;;;;3.38;1.20;;;9.20;99.00;;;;;;4917138;29;20458;-87
2022/04/21 00:06:07;;;;;;;3.17;1.10;;;9.20;99.10;;;;;;4946854;29;20401;-84
2022/04/21 00:08:34;;;;;;;1.73;1.00;;;9.20;99.10;;;;;;4935851;29;20906;-89
2022/04/21 00:11:02;;;;;;;1.45;0.90;;;9.20;99.10;;;;;;4921213;29;20404;-88
2022/04/21 00:13:31;;;;;;;2.10;1.00;;;9.20;99.10;;;;;;4919730;29;20445;-88
2022/04/21 00:15:59;;;;;;;2.75;1.02;;;9.10;99.30;;;;;;4921189;29;20394;-86
2022/04/21 00:18:27;;;;;;;1.80;1.00;;;9.10;99.40;;;;;;4920946;29;20402;-87
2022/04/21 00:20:57;;;;;;;2.58;1.10;;;9.10;99.40;;;;;;4920788;29;20914;-85
2022/04/21 00:23:29;;;;;;;2.17;1.10;;;9.10;99.30;;;;;;4920821;29;20398;-87
2022/04/21 00:25:59;;;;;;;1.73;1.03;;;9.00;99.40;;;;;;4920727;29;20405;-86
2022/04/21 00:28:32;;;;;;;1.85;1.08;;;9.00;99.60;;;;;;4920736;29;20414;-87
2022/04/21 00:30:59;;;;;;;3.35;1.17;;;9.00;99.50;;;;;;4920542;29;20511;-84
2022/04/21 00:33:27;;;;;;;3.20;1.23;;;8.90;99.40;;;;;;4927909;29;20778;-87
2022/04/21 00:35:55;;;;;;;2.35;1.10;;;8.80;99.80;;;;;;4956642;29;20487;-85
2022/04/21 00:38:22;;;;;;;2.50;1.20;;;8.90;99.70;;;;;;4946307;29;20397;-88
2022/04/21 00:40:50;;;;;;;2.15;1.20;;;8.90;99.60;;;;;;4920379;29;20405;-89
2022/04/21 00:43:18;;;;;;;2.55;1.02;;;8.80;99.70;;;;;;4937298;29;20466;-87
2022/04/21 00:45:45;;;;;;;3.45;1.27;;;8.80;99.90;;;;;;4920437;29;20410;-87
2022/04/21 00:48:13;;;;;;;2.67;1.00;;;8.80;99.90;;;;;;4935325;29;20478;-86
2022/04/21 00:50:41;;;;;;;1.85;0.93;;;8.70;99.90;;;;;;4938134;29;20397;-87
2022/04/21 00:53:09;;;;;;;2.47;1.20;;;8.70;99.90;;;;;;4919464;29;20414;-86
2022/04/21 00:55:38;;;;;;;2.33;1.10;;;8.60;99.90;;;;;;4937320;29;20452;-87
2022/04/21 00:58:07;;;;;;;2.50;1.20;;;8.70;99.90;;;;;;4915568;29;20501;-86
2022/04/21 01:00:35;;;;;;;2.58;1.20;;;8.60;99.90;;;;;;4937870;29;20394;-84
2022/04/21 01:03:06;;;;;;;2.03;1.10;;;8.60;99.90;;;;;;4917998;29;20893;-87
2022/04/21 01:05:34;;;;;;;2.00;1.08;;;8.60;99.90;;;;;;4936976;29;20453;-85
2022/04/21 01:08:06;;;;;;;2.58;1.17;;;8.50;99.90;;;;;;4941115;29;20406;-87
2022/04/21 01:10:37;;;;;;;2.10;1.00;;;8.50;99.90;;;;;;4907118;29;20404;-88
2022/04/21 01:13:06;;;;;;;3.80;1.00;;;8.60;99.90;;;;;;4904768;29;20684;-89
2022/04/21 01:15:39;;;;;;;1.90;1.10;;;8.70;99.90;;;;;;4900976;29;20494;-86
2022/04/21 01:18:07;;;;;;;3.17;1.00;;;8.60;99.90;;;;;;4911751;29;20394;-86
2022/04/21 01:20:35;;;;;;;1.60;0.98;;;8.60;99.90;;;;;;4935425;29;20960;-87
2022/04/21 01:23:03;;;;;;;2.40;1.13;;;8.50;99.90;;;;;;4907876;29;20475;-86
2022/04/21 01:25:41;;;;;;;1.75;1.00;;;8.40;99.90;;;;;;4953273;29;20871;-88
2022/04/21 01:28:10;;;;;;;1.73;0.90;;;8.50;99.90;;;;;;4955140;29;20402;-87
2022/04/21 01:30:38;;;;;;;2.35;1.13;;;8.50;99.90;;;;;;4954591;29;20483;-86
2022/04/21 01:33:07;;;;;;;2.28;1.10;;;8.50;99.90;;;;;;4900741;29;20420;-87
2022/04/21 01:35:36;;;;;;;2.67;0.90;;;8.50;99.90;;;;;;4908807;29;20901;-87
2022/04/21 01:43:38;;;;;;;3.40;1.10;;;8.20;99.90;;;;;;4946575;29;20484;-87
2022/04/21 01:46:06;;;;;;;2.72;1.20;;;8.30;99.90;;;;;;4918483;29;20769;-87
2022/04/21 01:48:33;;;;;;;2.88;1.20;;;8.20;99.90;;;;;;4918043;29;20449;-84
2022/04/21 01:51:01;;;;;;;2.13;1.10;;;8.20;99.90;;;;;;4917657;29;20394;-87
2022/04/21 01:53:29;;;;;;;2.53;1.00;;;8.10;99.90;;;;;;4914318;29;20419;-87
2022/04/21 01:55:57;;;;;;;2.30;1.10;;;8.10;99.90;;;;;;4915089;29;20404;-86
2022/04/21 01:58:24;;;;;;;2.10;1.20;;;8.10;99.90;;;;;;4915250;29;20451;-88
2022/04/21 02:00:52;;;;;;;3.50;1.10;;;8.10;99.90;;;;;;4914255;29;20400;-87
2022/04/21 02:03:20;;;;;;;3.67;1.10;;;8.10;99.90;;;;;;4931070;29;20403;-86
2022/04/21 02:05:48;;;;;;;1.83;1.08;;;8.10;99.90;;;;;;4934323;29;20426;-88
2022/04/21 02:08:15;;;;;;;4.37;1.10;;;8.10;99.90;;;;;;4931987;29;20477;-87
2022/04/21 02:10:43;;;;;;;2.53;1.20;;;8.10;99.90;;;;;;4916809;29;20400;-87
2022/04/21 02:13:11;;;;;;;2.53;1.00;;;8.00;99.90;;;;;;4916693;29;20420;-86
2022/04/21 02:15:38;;;;;;;2.60;1.23;;;8.00;99.90;;;;;;4931227;29;20969;-86
2022/04/21 02:18:06;;;;;;;2.20;1.30;;;7.90;99.90;;;;;;4915218;29;20965;-87
2022/04/21 02:20:34;;;;;;;1.88;1.23;;;7.90;99.90;;;;;;4915112;29;20763;-86
2022/04/21 02:23:01;;;;;;;2.90;1.30;;;7.90;99.90;;;;;;4902757;29;20757;-87
2022/04/21 02:25:29;;;;;;;3.40;1.40;;;7.90;99.90;;;;;;4915887;29;20401;-88
2022/04/21 02:27:57;;;;;;;2.60;1.50;;;7.80;99.90;;;;;;4906675;29;20494;-87
2022/04/21 02:30:24;;;;;;;2.38;1.20;;;7.90;99.90;;;;;;4916278;29;20392;-87
2022/04/21 02:32:52;;;;;;;1.75;1.20;;;7.90;99.90;;;;;;4913988;29;20400;-86
2022/04/21 02:35:20;;;;;;;2.38;1.38;;;7.80;99.90;;;;;;4915122;29;20491;-87
2022/04/21 02:37:47;;;;;;;3.47;1.45;;;7.80;99.90;;;;;;4911062;29;20504;-87
2022/04/21 02:40:16;;;;;;;3.75;1.55;;;7.70;99.90;;;;;;4916218;29;20396;-86
2022/04/21 02:42:44;;;;;;;2.40;1.40;;;7.70;99.90;;;;;;4915610;29;20410;-88
2022/04/21 02:45:13;;;;;;;2.90;1.50;;;7.70;99.90;;;;;;4933968;29;20407;-87
2022/04/21 02:47:43;;;;;;;3.63;1.30;;;7.70;99.90;;;;;;4933830;29;20401;-86
2022/04/21 02:50:14;;;;;;;3.30;1.30;;;7.60;99.90;;;;;;4927030;29;20415;-87
2022/04/21 02:52:43;;;;;;;2.60;1.38;;;7.60;99.90;;;;;;4913408;28;20401;-88
2022/04/21 02:57:59;;;;;;;3.63;1.90;;;7.60;99.90;;;;;;4942542;29;20933;-88
2022/04/21 03:00:27;;;;;;;3.28;1.40;;;7.50;99.90;;;;;;4934851;29;20409;-88
2022/04/21 03:02:56;;;;;;;2.70;1.33;;;7.50;99.90;;;;;;4933748;29;20430;-86
2022/04/21 03:05:24;;;;;;;2.13;1.40;;;7.50;99.90;;;;;;4917764;29;20442;-87
2022/04/21 03:07:52;;;;;;;3.17;1.60;;;7.50;99.90;;;;;;4917533;29;20421;-87
2022/04/21 03:10:19;;;;;;;2.60;1.48;;;7.50;99.90;;;;;;4914935;29;20455;-88
2022/04/21 03:12:47;;;;;;;2.55;1.42;;;7.40;99.90;;;;;;4931692;29;20402;-87
2022/04/21 03:15:15;;;;;;;2.17;1.20;;;7.50;99.90;;;;;;4917571;29;20410;-86
2022/04/21 03:17:43;;;;;;;2.50;1.35;;;7.50;99.90;;;;;;4935320;29;20873;-86
2022/04/21 03:24:18;;;;;;;3.22;1.55;;;7.40;99.90;;;;;;4917592;29;20421;-87
2022/04/21 03:25:47;;;;;;;2.30;1.17;;;7.50;99.90;;;;;;4917889;29;20404;-87
2022/04/21 03:28:15;;;;;;;2.15;1.20;;;7.50;99.90;;;;;;4917347;29;20394;-86
2022/04/21 03:30:43;;;;;;;2.77;1.40;;;7.50;99.90;;;;;;4934693;29;20405;-86
2022/04/21 03:33:10;;;;;;;2.97;1.20;;;7.50;99.90;;;;;;4917234;29;20410;-86
2022/04/21 03:35:38;;;;;;;2.08;1.10;;;7.50;99.90;;;;;;4933597;29;20548;-87
2022/04/21 03:38:05;;;;;;;2.00;1.20;;;7.50;99.90;;;;;;4917635;29;20827;-86
2022/04/21 03:40:33;;;;;;;2.17;1.13;;;7.50;99.90;;;;;;4934566;29;20422;-87
2022/04/21 03:43:01;;;;;;;2.50;1.13;;;7.40;99.90;;;;;;4934869;29;20984;-86
2022/04/21 03:45:29;;;;;;;3.00;1.27;;;7.40;99.90;;;;;;4938310;29;20492;-86
2022/04/21 03:47:58;;;;;;;2.35;1.30;;;7.40;99.90;;;;;;4921009;29;20457;-86
2022/04/21 03:50:26;;;;;;;2.50;1.10;;;7.50;99.90;;;;;;4937864;29;20402;-87
2022/04/21 03:52:54;;;;;;;2.90;1.25;;;7.50;99.90;;;;;;4920644;29;20402;-85
2022/04/21 03:55:21;;;;;;;2.35;1.20;;;7.50;99.90;;;;;;4938347;29;20420;-86
2022/04/21 03:57:49;;;;;;;3.55;1.30;;;7.50;99.90;;;;;;4920975;29;20405;-87
2022/04/21 04:00:17;;;;;;;2.17;1.30;;;7.50;99.90;;;;;;4934503;29;20751;-86
2022/04/21 04:02:45;;;;;;;2.53;1.20;;;7.50;99.90;;;;;;4955539;29;20388;-86
2022/04/21 04:05:13;;;;;;;2.45;1.15;;;7.50;99.90;;;;;;4906860;29;20496;-86
2022/04/21 04:13:12;;;;;;;2.53;1.17;;;7.50;99.90;;;;;;4939731;29;20404;-87
2022/04/21 04:15:39;;;;;;;2.13;1.40;;;7.40;99.90;;;;;;4956532;29;20404;-88
2022/04/21 04:18:07;;;;;;;2.75;1.27;;;7.50;99.90;;;;;;4939887;29;20479;-85
2022/04/21 04:20:34;;;;;;;3.10;1.25;;;7.40;99.90;;;;;;4956678;29;20396;-88
2022/04/21 04:23:02;;;;;;;4.30;1.30;;;7.50;99.90;;;;;;4937680;29;20398;-87
2022/04/21 04:25:30;;;;;;;1.92;1.20;;;7.50;99.90;;;;;;4924489;29;20424;-86
2022/04/21 04:27:58;;;;;;;2.10;1.30;;;7.60;99.90;;;;;;4946122;29;20413;-87
2022/04/21 04:30:31;;;;;;;2.93;1.20;;;7.60;99.90;;;;;;4921055;29;20402;-86
2022/04/21 04:32:59;;;;;;;3.40;1.77;;;7.60;99.90;;;;;;4936278;29;20422;-87
2022/04/21 04:35:29;;;;;;;3.77;1.30;;;7.60;99.90;;;;;;4901401;29;20430;-86
2022/04/21 04:37:56;;;;;;;2.50;1.33;;;7.70;99.90;;;;;;4886111;29;20404;-87
2022/04/21 04:40:25;;;;;;;2.13;1.35;;;7.70;99.90;;;;;;4915324;29;20394;-87
2022/04/21 04:42:54;;;;;;;2.93;1.30;;;7.70;99.90;;;;;;4920168;29;20413;-87
2022/04/21 04:48:08;;;;;;;5.13;1.27;;;7.70;99.90;;;;;;4920166;29;20764;-86
2022/04/21 04:50:36;;;;;;;4.90;1.30;;;7.70;99.90;;;;;;4922442;29;20556;-86
2022/04/21 04:53:09;;;;;;;3.40;1.30;;;7.70;99.90;;;;;;4923853;29;20392;-87
2022/04/21 04:55:36;;;;;;;3.20;1.20;;;7.80;99.90;;;;;;4920769;29;20421;-88
2022/04/21 04:58:04;;;;;;;2.30;1.20;;;7.80;99.90;;;;;;4937803;29;20862;-87
2022/04/21 05:00:31;;;;;;;3.22;1.40;;;7.80;99.90;;;;;;4921596;29;20390;-87
2022/04/21 05:02:59;;;;;;;2.47;1.40;;;7.90;99.90;;;;;;4932464;29;20438;-87
2022/04/21 05:05:28;;;;;;;4.13;1.20;;;7.90;99.90;;;;;;4915201;29;20935;-85
2022/04/21 05:07:56;;;;;;;4.32;1.60;;;7.90;99.90;;;;;;4911930;29;20829;-86
2022/04/21 05:10:23;;;;;;;3.30;1.52;;;7.90;99.90;;;;;;4915957;29;20414;-88
2022/04/21 05:12:51;;;;;;;6.82;2.60;;;8.00;99.90;;;;;;4940727;29;20430;-87
2022/04/21 05:15:19;;;;;;;3.90;1.60;;;8.00;99.90;;;;;;4922914;29;20439;-83
2022/04/21 05:17:47;;;;;;;3.88;1.50;;;8.00;99.90;;;;;;4943876;29;20390;-81
2022/04/21 05:20:25;;;;;;;4.55;1.35;;;8.10;99.90;;;;;;4928254;29;20410;-86
2022/04/21 05:23:05;;;;;;;4.60;1.70;;;8.10;99.90;;;;;;4928278;29;20409;-81
2022/04/21 05:25:36;;;;;;;3.50;1.40;;;8.10;99.90;;;;;;4943661;29;20401;-85
2022/04/21 05:28:06;;;;;;;3.35;1.55;;;8.10;99.90;;;;;;4947598;29;20402;-81
2022/04/21 05:30:55;;;;;;;2.92;1.20;;;8.20;99.90;;;;;;4931063;29;20400;-81
2022/04/21 05:33:25;;;;;;;3.40;1.20;;;8.20;99.90;;;;;;4935523;29;20454;-81
2022/04/21 05:35:58;;;;;;;2.15;1.27;;;8.30;99.90;;;;;;4945396;29;20514;-83
2022/04/21 05:38:29;;;;;;;4.68;1.45;;;8.30;99.90;;;;;;4926615;29;20478;-81
2022/04/21 05:40:57;;;;;;;2.83;1.10;;;8.40;99.90;;;;;;4926185;29;20396;-87
2022/04/21 05:43:30;;;;;;;2.28;1.15;;;8.50;99.90;;;;;;4938054;29;20398;-86
2022/04/21 05:45:58;;;;;;;2.37;1.30;;;8.50;99.90;;;;;;4923316;29;20398;-86
2022/04/21 05:48:26;;;;;;;3.03;1.40;;;8.50;99.90;;;;;;4922839;29;20398;-86
2022/04/21 05:50:59;;;;;;;2.65;1.50;;;8.60;99.90;;;;;;4940232;29;20888;-87
2022/04/21 05:53:27;;;;;;;3.15;1.48;;;8.60;99.90;;;;;;4938467;29;20402;-86
2022/04/21 05:55:55;;;;;;;2.28;1.30;;;8.70;99.90;;;;;;4923401;29;20428;-84
2022/04/21 05:58:23;;;;;;;3.13;1.50;;;8.80;99.90;;;;;;4922412;29;20838;-84
2022/04/21 06:00:51;;;;;;;2.22;1.30;;;8.80;99.90;;;;;;4924625;29;20410;-81
2022/04/21 06:03:24;;;;;;;2.67;1.50;;;8.90;99.90;;;;;;4946129;29;20402;-84
2022/04/21 06:05:51;;;;;;;4.68;1.40;;;8.90;99.90;;;;;;4942589;29;20405;-86
2022/04/21 06:08:19;;;;;;;1.75;1.20;;;9.00;99.90;;;;;;4941794;29;20408;-81
2022/04/21 06:10:47;;;;;;;4.13;1.33;;;9.10;99.90;;;;;;4946583;29;20426;-82
2022/04/21 06:13:15;;;;;;;3.23;1.40;;;9.20;99.90;;;;;;4945946;29;20403;-83
2022/04/21 06:15:46;;;;;;;1.70;1.10;;;9.20;99.90;;;;;;4925442;29;20441;-85
2022/04/21 06:18:14;;;;;;;3.17;1.30;;;9.20;99.90;;;;;;4937775;29;20398;-87
2022/04/21 06:20:42;;;;;;;3.60;1.30;;;9.20;99.90;;;;;;4921572;29;20394;-87
2022/04/21 06:23:09;;;;;;;2.15;1.40;;;9.20;99.90;;;;;;4940806;29;20904;-87
2022/04/21 06:25:42;;;;;;;2.55;1.40;;;9.20;99.90;;;;;;4924678;29;20402;-88
2022/04/21 06:28:13;;;;;;;2.88;1.30;;;9.40;99.90;;;;;;4936934;29;20474;-84
2022/04/21 06:30:44;;;;;;;2.38;1.20;;;9.40;99.90;;;;;;4921243;29;20408;-87
2022/04/21 06:33:16;;;;;;;1.77;1.30;;;9.50;99.90;;;;;;4920896;29;20441;-86
2022/04/21 06:35:46;;;;;;;8.38;1.42;;;9.50;99.90;;;;;;4920058;29;20449;-88
2022/04/21 06:38:14;;;;;;;2.90;1.20;;;9.60;99.90;;;;;;4942277;29;20402;-87
2022/04/21 06:40:42;;;;;;;2.83;1.40;;;9.60;99.90;;;;;;4937853;29;20426;-87
2022/04/21 06:48:42;;;;;;;2.70;1.30;;;9.80;99.90;;;;;;4923738;29;20410;-87
2022/04/21 06:51:11;;;;;;;3.20;1.30;;;9.90;99.90;;;;;;4940669;29;20409;-84
2022/04/21 06:53:39;;;;;;;2.85;1.27;;;9.90;99.90;;;;;;4946275;29;20441;-82
2022/04/21 06:56:07;;;;;;;2.45;1.20;;;9.90;99.90;;;;;;4945868;29;20410;-82
2022/04/21 06:58:35;;;;;;;1.70;1.20;;;9.90;99.90;;;;;;4928369;29;20405;-82
2022/04/21 07:01:03;;;;;;;2.63;1.13;;;10.00;99.90;;;;;;4928934;29;20404;-81
2022/04/21 07:03:31;;;;;;;2.17;1.17;;;10.10;99.90;;;;;;4928151;29;20390;-86
2022/04/21 07:06:00;;;;;;;3.22;1.10;;;10.10;99.90;;;;;;4946701;29;20425;-82
2022/04/21 07:08:28;;;;;;;2.00;1.10;;;10.20;99.90;;;;;;4929019;29;20406;-83
2022/04/21 07:10:56;;;;;;;2.05;1.02;;;10.30;99.90;;;;;;4929814;29;20398;-82
2022/04/21 07:13:23;;;;;;;2.72;1.05;;;10.30;99.90;;;;;;4929911;29;20468;-82
2022/04/21 07:15:51;;;;;;;3.50;1.37;;;10.40;99.90;;;;;;4928525;29;20450;-83
2022/04/21 07:18:19;;;;;;;4.25;1.00;;;10.50;99.90;;;;;;4929215;29;20616;-82
2022/04/21 07:20:47;;;;;;;2.33;1.13;;;10.40;99.90;;;;;;4945799;29;20389;-81
2022/04/21 07:23:14;;;;;;;1.88;0.90;;;10.70;99.90;;;;;;4929721;29;20421;-82
2022/04/21 07:25:42;;;;;;;3.38;1.45;;;10.60;99.90;;;;;;4929662;29;20485;-81
2022/04/21 07:28:10;;;;;;;3.40;1.38;;;10.70;99.90;;;;;;4947063;29;20409;-81
2022/04/21 07:30:37;;;;;;;1.53;1.00;;;10.70;99.90;;;;;;4945823;29;20393;-81
2022/04/21 07:33:06;;;;;;;1.50;1.00;;;10.80;99.90;;;;;;4911192;29;20403;-82
2022/04/21 07:35:34;;;;;;;2.83;1.13;;;10.90;99.90;;;;;;4915048;29;20419;-81
2022/04/21 07:38:02;;;;;;;2.80;1.10;;;11.00;99.90;;;;;;4926783;29;20398;-81
2022/04/21 07:40:30;;;;;;;3.03;1.10;;;11.00;99.90;;;;;;4942786;29;20401;-81
2022/04/21 07:43:02;;;;;;;2.28;1.25;;;11.20;99.90;;;;;;4945547;29;20401;-82
2022/04/21 07:45:30;;;;;;;2.05;1.10;;;11.20;99.90;;;;;;4929332;29;20402;-82
2022/04/21 07:47:57;;;;;;;4.40;1.15;;;11.20;99.90;;;;;;4929425;29;20430;-82
2022/04/21 07:50:25;;;;;;;2.55;1.00;;;11.30;99.90;;;;;;4929276;29;20402;-82
2022/04/21 07:53:13;;;;;;;1.63;1.00;;;11.30;99.90;;;;;;4932525;29;20453;-81
2022/04/21 07:55:46;;;;;;;3.45;1.25;;;11.30;99.90;;;;;;4929554;29;20414;-81
2022/04/21 07:58:14;;;;;;;3.83;1.17;;;11.40;99.90;;;;;;4929440;29;20822;-82
2022/04/21 08:00:42;;;;;;;2.15;1.20;;;11.60;99.90;;;;;;4946604;29;20392;-82
2022/04/21 08:03:12;;;;;;;3.63;1.10;;;11.70;99.90;;;;;;4946728;29;20394;-81
2022/04/21 08:05:41;;;;;;;2.00;1.10;;;11.70;99.90;;;;;;4929403;29;20927;-81
2022/04/21 08:08:11;;;;;;;3.13;1.10;;;11.80;99.90;;;;;;4929663;29;20492;-82
2022/04/21 08:10:39;;;;;;;2.60;1.10;;;11.80;99.90;;;;;;4929436;29;20426;-82
2022/04/21 08:13:06;;;;;;;1.92;1.00;;;11.90;99.90;;;;;;4965631;29;20400;-82
2022/04/21 08:15:35;;;;;;;1.75;0.98;;;12.10;99.90;;;;;;4937755;29;20408;-81
2022/04/21 08:18:05;;;;;;;3.95;1.00;;;12.20;99.90;;;;;;4938939;29;20401;-82
2022/04/21 08:20:36;;;;;;;2.47;0.80;;;12.10;99.40;;;;;;4929344;29;20769;-81
2022/04/21 08:23:04;;;;;;;3.03;1.00;;;12.10;98.90;;;;;;4910697;29;20391;-81
2022/04/21 08:34:12;;;;;;;4.35;0.88;;;12.40;98.60;;;;;;4932259;29;20913;-83
2022/04/21 08:36:40;;;;;;;3.80;0.93;;;12.40;98.30;;;;;;4931878;29;20413;-86
2022/04/21 08:39:08;;;;;;;1.83;0.90;;;12.50;98.00;;;;;;4931868;29;20398;-83
2022/04/21 08:41:42;;;;;;;3.40;1.08;;;12.50;98.90;;;;;;4928397;29;20398;-83
2022/04/21 08:44:10;;;;;;;1.92;0.88;;;12.60;98.40;;;;;;4932247;29;20398;-83
2022/04/21 08:46:39;;;;;;;4.93;0.90;;;12.60;99.30;;;;;;4916910;29;20815;-84
2022/04/21 08:49:08;;;;;;;2.25;1.00;;;12.70;97.80;;;;;;4929904;29;20408;-86
2022/04/21 08:51:36;;;;;;;1.63;0.80;;;12.70;97.90;;;;;;4910956;29;20423;-88
2022/04/21 08:54:05;;;;;;;2.22;0.85;;;12.80;98.30;;;;;;4918146;29;20446;-88
2022/04/21 08:56:33;;;;;;;1.90;0.90;;;12.90;97.90;;;;;;4922926;29;20416;-83
2022/04/21 08:59:00;;;;;;;1.45;0.90;;;12.80;98.10;;;;;;4926605;29;20451;-83
2022/04/21 09:01:28;;;;;;;3.63;1.10;;;12.80;97.90;;;;;;4927342;29;20427;-84
2022/04/21 09:03:56;;;;;;;4.07;1.00;;;12.90;98.10;;;;;;4925329;29;20407;-86
2022/04/21 09:06:24;;;;;;;1.40;1.00;;;12.90;98.70;;;;;;4913877;29;20468;-83
2022/04/21 09:09:21;;;;;;;2.03;0.93;;;13.00;98.30;;;;;;4926081;29;20421;-82
2022/04/21 09:11:56;;;;;;;1.70;1.00;;;13.10;97.90;;;;;;4928648;29;20400;-83
2022/04/21 09:14:24;;;;;;;1.40;0.90;;;13.20;97.90;;;;;;4926811;29;20402;-87
2022/04/21 09:16:51;;;;;;;2.35;0.90;;;13.10;97.70;;;;;;4928144;29;20415;-82
2022/04/21 09:19:19;;;;;;;1.95;0.98;;;13.30;97.70;;;;;;4929696;29;20395;-83
2022/04/21 09:21:50;;;;;;;1.65;0.80;;;13.40;97.60;;;;;;4927229;29;20438;-83
2022/04/21 09:24:28;;;;;;;1.90;1.00;;;13.30;97.40;;;;;;4927313;29;20491;-87
2022/04/21 09:26:57;;;;;;;1.95;0.90;;;13.30;96.90;;;;;;4928048;29;20820;-84
2022/04/21 09:29:29;;;;;;;2.45;0.90;;;13.40;97.50;;;;;;4928265;29;20431;-83
2022/04/21 09:32:04;;;;;;;1.90;1.00;;;13.50;96.40;;;;;;4928411;29;20427;-84
2022/04/21 09:34:36;;;;;;;2.28;1.02;;;13.50;96.60;;;;;;4928468;29;20455;-83
2022/04/21 09:37:07;;;;;;;2.28;1.17;;;13.60;97.20;;;;;;4910345;29;20985;-85
2022/04/21 09:39:48;;;;;;;1.98;1.00;;;13.60;96.70;;;;;;4909107;29;20405;-83
2022/04/21 09:42:29;;;;;;;3.50;1.00;;;13.80;96.80;;;;;;4908895;29;20405;-84
2022/04/21 09:47:50;;;;;;;2.13;0.90;;;14.00;95.30;;;;;;4920548;29;20453;-83
2022/04/21 09:50:18;;;;;;;2.15;0.90;;;14.00;96.50;;;;;;4931527;29;20503;-84
2022/04/21 09:52:53;;;;;;;2.70;0.98;;;13.90;97.00;;;;;;4932128;29;20432;-83
2022/04/21 09:55:31;;;;;;;2.63;0.95;;;14.10;96.40;;;;;;4915536;29;20411;-85
2022/04/21 09:58:07;;;;;;;4.55;1.30;;;14.00;95.30;;;;;;4895965;29;20492;-84
2022/04/21 10:00:37;;;;;;;1.67;1.10;;;14.00;96.70;;;;;;4903675;29;20407;-84
2022/04/21 10:03:06;;;;;;;1.70;1.00;;;14.10;96.20;;;;;;4892827;29;20480;-84
2022/04/21 10:05:36;;;;;;;1.60;1.10;;;14.10;96.50;;;;;;4908182;29;20437;-83
2022/04/21 10:08:07;;;;;;;3.20;1.00;;;14.20;96.80;;;;;;4906214;29;20406;-86
2022/04/21 10:10:36;;;;;;;3.75;1.15;;;14.30;96.00;;;;;;4907492;29;20409;-88
2022/04/21 10:13:06;;;;;;;2.60;1.20;;;14.30;95.60;;;;;;4893762;29;20461;-86
2022/04/21 10:15:34;;;;;;;2.08;1.10;;;14.30;96.20;;;;;;4920380;29;20409;-83
2022/04/21 10:18:03;;;;;;;3.53;1.30;;;14.30;96.60;;;;;;4905394;29;20409;-88
2022/04/21 10:20:32;;;;;;;3.45;1.13;;;14.50;95.40;;;;;;4908513;29;20903;-84
2022/04/21 10:23:01;;;;;;;1.75;1.10;;;14.50;96.40;;;;;;4903445;29;20772;-88
2022/04/21 10:25:40;;;;;;;3.45;1.20;;;14.60;96.30;;;;;;4900323;29;20398;-85
2022/04/21 10:28:39;;;;;;;3.30;1.00;;;14.70;95.80;;;;;;4903149;29;20403;-89
2022/04/21 10:31:25;;;;;;;2.50;1.30;;;14.70;95.20;;;;;;4899742;29;20493;-90
2022/04/21 10:33:54;;;;;;;3.13;1.33;;;14.70;96.50;;;;;;4901434;29;20397;-86
2022/04/21 10:36:42;;;;;;;2.60;1.27;;;14.90;95.40;;;;;;4913493;29;20420;-88
2022/04/21 10:39:27;;;;;;;3.55;1.30;;;15.00;95.50;;;;;;4900038;29;20409;-89
2022/04/21 10:42:17;;;;;;;2.67;1.38;;;15.00;95.80;;;;;;4900080;29;20405;-87
2022/04/21 10:44:52;;;;;;;2.67;1.17;;;15.10;94.90;;;;;;4905259;29;20500;-89
2022/04/21 10:47:37;;;;;;;2.63;1.30;;;15.10;94.70;;;;;;4905019;29;20468;-85
2022/04/21 10:50:15;;;;;;;2.67;1.10;;;15.10;94.80;;;;;;4906564;29;20407;-85
2022/04/21 10:58:34;;;;;;;3.30;1.30;;;15.10;95.30;;;;;;4917714;29;20889;-88
2022/04/21 11:01:17;;;;;;;2.40;1.30;;;15.30;94.10;;;;;;4898274;29;20456;-89
2022/04/21 11:04:04;;;;;;;2.35;1.25;;;15.20;94.00;;;;;;4901504;29;20405;-87
2022/04/21 11:06:49;;;;;;;1.90;1.17;;;15.40;94.50;;;;;;4899059;29;20778;-89
2022/04/21 11:09:40;;;;;;;3.78;1.10;;;15.30;93.10;;;;;;4902324;29;20406;-89
2022/04/21 11:12:45;;;;;;;3.13;1.20;;;15.30;94.00;;;;;;4916285;29;20431;-89
2022/04/21 11:15:39;;;;;;;2.15;1.10;;;15.40;94.60;;;;;;4915485;29;20399;-89
2022/04/21 11:18:12;;;;;;;3.20;1.10;;;15.60;93.80;;;;;;4916631;29;20890;-85
2022/04/21 11:20:42;;;;;;;2.50;1.33;;;15.50;93.10;;;;;;4924242;29;20449;-88
2022/04/21 11:23:23;;;;;;;2.38;1.25;;;15.50;94.40;;;;;;4882743;29;20424;-88
2022/04/21 11:26:03;;;;;;;4.07;1.10;;;15.70;93.20;;;;;;4906562;29;20403;-88
2022/04/21 11:28:31;;;;;;;2.70;1.10;;;16.00;93.80;;;;;;4911821;29;20405;-88
2022/04/21 11:31:01;;;;;;;2.70;1.02;;;16.00;93.90;;;;;;4898706;29;20400;-89
2022/04/21 11:33:31;;;;;;;2.72;1.02;;;15.90;93.30;;;;;;4915206;29;20404;-89
2022/04/21 11:36:06;;;;;;;4.07;1.20;;;16.00;93.90;;;;;;4916294;29;20898;-88
2022/04/21 11:38:44;;;;;;;1.90;1.10;;;16.00;93.30;;;;;;4914703;29;20403;-89
2022/04/21 11:41:14;;;;;;;2.05;1.05;;;16.20;93.70;;;;;;4915340;29;20482;-88
2022/04/21 11:43:50;;;;;;;3.63;1.00;;;16.30;93.20;;;;;;4916193;29;20459;-89
2022/04/21 11:46:21;;;;;;;5.28;1.00;;;16.40;93.40;;;;;;4917660;29;20487;-88
2022/04/21 11:48:58;;;;;;;3.93;1.07;;;16.70;93.50;;;;;;4914032;29;20410;-87
2022/04/21 11:51:26;;;;;;;2.10;1.13;;;16.60;92.00;;;;;;4914569;29;20467;-87
2022/04/21 11:53:55;;;;;;;3.65;1.00;;;16.50;92.10;;;;;;4921554;29;20986;-89
2022/04/21 11:56:23;;;;;;;2.97;1.30;;;16.50;93.30;;;;;;4907422;29;20411;-88
2022/04/21 11:58:51;;;;;;;4.68;1.27;;;16.60;92.70;;;;;;4919102;29;20421;-88
2022/04/21 12:07:00;;;;;;;3.15;1.00;;;16.80;93.10;;;;;;4954253;29;20401;-89
2022/04/21 12:09:34;;;;;;;1.80;1.00;;;16.90;92.90;;;;;;4937321;29;20485;-90
2022/04/21 12:12:04;;;;;;;1.67;1.00;;;17.00;92.30;;;;;;4955217;29;20519;-89
2022/04/21 12:14:32;;;;;;;2.40;1.02;;;17.10;93.10;;;;;;4918918;29;20424;-88
2022/04/21 12:17:06;;;;;;;3.33;1.10;;;17.20;92.70;;;;;;4919838;29;20491;-88
2022/04/21 12:19:44;;;;;;;4.75;1.20;;;17.30;92.30;;;;;;4931792;29;20956;-90
2022/04/21 12:22:20;;;;;;;2.17;1.10;;;17.20;91.30;;;;;;4922918;29;20390;-89
2022/04/21 12:24:54;;;;;;;4.65;1.30;;;17.20;92.40;;;;;;4920397;29;20406;-90
2022/04/21 12:27:36;;;;;;;2.03;1.08;;;17.40;92.30;;;;;;4948768;29;20406;-88
2022/04/21 12:30:12;;;;;;;3.22;1.00;;;17.30;92.60;;;;;;4938943;29;20483;-89
2022/04/21 12:32:46;;;;;;;3.53;1.20;;;17.20;92.40;;;;;;4920591;29;20944;-89
2022/04/21 12:35:15;;;;;;;3.30;1.10;;;17.40;91.70;;;;;;4920619;29;20445;-89
2022/04/21 12:38:50;;;;;;;3.45;1.20;;;17.30;91.00;;;;;;4937467;29;20413;-90
2022/04/21 12:40:39;;;;;;;4.00;1.20;;;17.00;91.30;;;;;;4936104;29;20413;-89
2022/04/21 12:43:07;;;;;;;2.40;1.50;;;17.20;91.30;;;;;;4920396;29;20428;-89
2022/04/21 12:45:36;;;;;;;4.63;1.27;;;17.40;92.60;;;;;;4920481;29;20394;-89
2022/04/21 12:48:26;;;;;;;4.78;1.40;;;17.60;93.30;;;;;;4920136;29;20426;-90
2022/04/21 12:50:56;;;;;;;4.57;1.50;;;17.60;91.20;;;;;;4936397;29;20405;-89
2022/04/21 12:53:34;;;;;;;3.22;1.50;;;17.40;90.50;;;;;;4919878;29;20398;-87
2022/04/21 12:56:10;;;;;;;11.98;1.92;;;17.60;91.80;;;;;;4920183;29;20416;-89
2022/04/21 12:58:38;;;;;;;10.63;1.90;;;17.70;90.60;;;;;;4936048;29;20397;-86
2022/04/21 13:01:05;;;;;;;4.90;1.80;;;17.70;90.70;;;;;;4924125;29;20394;-88
2022/04/21 13:03:33;;;;;;;7.05;2.05;;;17.80;91.30;;;;;;4919740;29;20512;-88
2022/04/21 13:06:01;;;;;;;5.20;2.13;;;17.80;90.30;;;;;;4919736;29;20411;-88
2022/04/21 13:08:30;;;;;;;4.15;2.10;;;17.80;89.80;;;;;;4919648;29;20469;-89
2022/04/21 13:10:58;;;;;;;2.97;1.95;;;17.70;87.20;;;;;;4919749;29;20402;-88
2022/04/21 13:13:29;;;;;;;5.37;1.60;;;17.80;90.70;;;;;;4919145;29;20406;-88
2022/04/21 13:15:57;;;;;;;4.32;1.83;;;17.80;90.70;;;;;;4918380;29;20414;-87
2022/04/21 13:18:29;;;;;;;3.10;1.90;;;17.90;90.40;;;;;;4919701;29;20421;-88
2022/04/21 13:23:43;;;;;;;3.20;2.15;;;18.20;90.40;;;;;;4936795;29;20469;-88
2022/04/21 13:26:11;;;;;;;4.45;2.20;;;17.90;89.90;;;;;;4936768;29;20402;-87
2022/04/21 13:29:00;;;;;;;4.90;2.67;;;17.80;89.10;;;;;;4919464;29;20398;-88
2022/04/21 13:34:13;;;;;;;4.72;2.88;;;17.90;90.60;;;;;;4936459;29;20398;-89
2022/04/21 13:36:41;;;;;;;5.35;2.50;;;17.90;90.00;;;;;;4936383;29;20446;-88
2022/04/21 13:39:09;;;;;;;4.13;2.50;;;18.00;87.40;;;;;;4935072;29;20409;-87
2022/04/21 13:41:37;;;;;;;3.83;2.15;;;18.00;88.70;;;;;;4919045;29;20400;-87
2022/04/21 13:44:05;;;;;;;4.23;1.93;;;18.10;87.30;;;;;;4936254;29;20398;-89
2022/04/21 13:46:57;;;;;;;3.75;1.90;;;18.10;88.80;;;;;;4918538;29;20413;-88
2022/04/21 13:49:25;;;;;;;4.15;1.70;;;17.80;89.70;;;;;;4918995;29;20893;-88
2022/04/21 13:51:53;;;;;;;3.95;2.10;;;17.90;86.50;;;;;;4919012;29;20406;-87
2022/04/21 13:54:21;;;;;;;4.90;1.85;;;17.90;88.20;;;;;;4918702;29;20502;-88
2022/04/21 13:56:49;;;;;;;3.20;1.65;;;18.30;90.20;;;;;;4935936;29;20410;-87
2022/04/21 13:59:17;;;;;;;2.67;1.60;;;18.40;88.10;;;;;;4918608;29;20426;-87
2022/04/21 14:01:45;;;;;;;4.00;1.77;;;18.10;88.60;;;;;;4939490;29;20425;-87
2022/04/21 14:04:12;;;;;;;5.15;1.77;;;18.20;90.10;;;;;;4935817;29;20412;-87